createdAt,value
2022-08-10T00:00:00.000Z,0.0
2022-08-10T00:02:00.000Z,0.0
2022-08-10T00:04:00.000Z,0.0
2022-08-10T00:06:00.000Z,0.0
2022-08-10T00:08:00.000Z,0.0
2022-08-10T00:10:00.000Z,0.0
2022-08-10T00:12:00.000Z,0.0
2022-08-10T00:14:00.000Z,0.0
2022-08-10T00:16:00.000Z,0.0
2022-08-10T00:18:00.000Z,0.0
2022-08-10T00:20:00.000Z,0.0
2022-08-10T00:22:00.000Z,0.0
2022-08-10T00:24:00.000Z,0.0
2022-08-10T00:26:00.000Z,0.0
2022-08-10T00:28:00.000Z,0.0
2022-08-10T00:30:00.000Z,0.0
2022-08-10T00:32:00.000Z,0.0
2022-08-10T00:34:00.000Z,0.0
2022-08-10T00:36:00.000Z,0.0
2022-08-10T00:38:00.000Z,0.0
2022-08-10T00:40:00.000Z,0.0
2022-08-10T00:42:00.000Z,0.0
2022-08-10T00:44:00.000Z,0.0
2022-08-10T00:46:00.000Z,0.0
2022-08-10T00:48:00.000Z,0.0
2022-08-10T00:50:00.000Z,0.0
2022-08-10T00:52:00.000Z,0.0
2022-08-10T00:54:00.000Z,0.0
2022-08-10T00:56:00.000Z,0.0
2022-08-10T00:58:00.000Z,0.0
2022-08-10T01:00:00.000Z,0.0
2022-08-10T01:02:00.000Z,0.0
2022-08-10T01:04:00.000Z,0.0
2022-08-10T01:06:00.000Z,0.0
2022-08-10T01:08:00.000Z,0.0
2022-08-10T01:10:00.000Z,0.0
2022-08-10T01:12:00.000Z,0.0
2022-08-10T01:14:00.000Z,0.0
2022-08-10T01:16:00.000Z,0.0
2022-08-10T01:18:00.000Z,0.0
2022-08-10T01:20:00.000Z,0.0
2022-08-10T01:22:00.000Z,0.0
2022-08-10T01:24:00.000Z,0.0
2022-08-10T01:26:00.000Z,0.0
2022-08-10T01:28:00.000Z,0.0
2022-08-10T01:30:00.000Z,0.0
2022-08-10T01:32:00.000Z,0.0
2022-08-10T01:34:00.000Z,0.0
2022-08-10T01:36:00.000Z,0.0
2022-08-10T01:38:00.000Z,0.0
2022-08-10T01:40:00.000Z,0.0
2022-08-10T01:42:00.000Z,0.0
2022-08-10T01:44:00.000Z,0.0
2022-08-10T01:46:00.000Z,0.0
2022-08-10T01:48:00.000Z,0.0
2022-08-10T01:50:00.000Z,0.0
2022-08-10T01:52:00.000Z,0.0
2022-08-10T01:54:00.000Z,0.0
2022-08-10T01:56:00.000Z,0.0
2022-08-10T01:58:00.000Z,0.0
2022-08-10T02:00:00.000Z,0.0
2022-08-10T02:02:00.000Z,0.0
2022-08-10T02:04:00.000Z,0.0
2022-08-10T02:06:00.000Z,0.0
2022-08-10T02:08:00.000Z,0.0
2022-08-10T02:10:00.000Z,0.0
2022-08-10T02:12:00.000Z,0.0
2022-08-10T02:14:00.000Z,0.0
2022-08-10T02:16:00.000Z,0.0
2022-08-10T02:18:00.000Z,0.0
2022-08-10T02:20:00.000Z,0.0
2022-08-10T02:22:00.000Z,0.0
2022-08-10T02:24:00.000Z,0.0
2022-08-10T02:26:00.000Z,0.0
2022-08-10T02:28:00.000Z,0.0
2022-08-10T02:30:00.000Z,0.0
2022-08-10T02:32:00.000Z,0.0
2022-08-10T02:34:00.000Z,0.0
2022-08-10T02:36:00.000Z,0.0
2022-08-10T02:38:00.000Z,0.0
2022-08-10T02:40:00.000Z,0.0
2022-08-10T02:42:00.000Z,0.0
2022-08-10T02:44:00.000Z,0.0
2022-08-10T02:46:00.000Z,0.0
2022-08-10T02:48:00.000Z,0.0
2022-08-10T02:50:00.000Z,0.0
2022-08-10T02:52:00.000Z,0.0
2022-08-10T02:54:00.000Z,0.0
2022-08-10T02:56:00.000Z,0.0
2022-08-10T02:58:00.000Z,0.0
2022-08-10T03:00:00.000Z,0.0
2022-08-10T03:02:00.000Z,0.0
2022-08-10T03:04:00.000Z,0.0
2022-08-10T03:06:00.000Z,0.0
2022-08-10T03:08:00.000Z,0.0
2022-08-10T03:10:00.000Z,0.0
2022-08-10T03:12:00.000Z,0.0
2022-08-10T03:14:00.000Z,0.0
2022-08-10T03:16:00.000Z,0.0
2022-08-10T03:18:00.000Z,0.0
2022-08-10T03:20:00.000Z,0.0
2022-08-10T03:22:00.000Z,0.0
2022-08-10T03:24:00.000Z,0.0
2022-08-10T03:26:00.000Z,0.0
2022-08-10T03:28:00.000Z,0.31
2022-08-10T03:30:00.000Z,0.39
2022-08-10T03:32:00.000Z,0.55
2022-08-10T03:34:00.000Z,0.71
2022-08-10T03:36:00.000Z,0.94
2022-08-10T03:38:00.000Z,1.18
2022-08-10T03:40:00.000Z,1.5
2022-08-10T03:42:00.000Z,1.73
2022-08-10T03:44:00.000Z,2.05
2022-08-10T03:46:00.000Z,2.29
2022-08-10T03:48:00.000Z,2.44
2022-08-10T03:50:00.000Z,2.84
2022-08-10T03:52:00.000Z,3.23
2022-08-10T03:54:00.000Z,3.55
2022-08-10T03:56:00.000Z,4.26
2022-08-10T03:58:00.000Z,4.89
2022-08-10T04:00:00.000Z,5.68
2022-08-10T04:02:00.000Z,6.71
2022-08-10T04:04:00.000Z,8.13
2022-08-10T04:06:00.000Z,9.48
2022-08-10T04:08:00.000Z,10.74
2022-08-10T04:10:00.000Z,12.32
2022-08-10T04:12:00.000Z,13.82
2022-08-10T04:14:00.000Z,14.45
2022-08-10T04:16:00.000Z,15.8
2022-08-10T04:18:00.000Z,16.9
2022-08-10T04:20:00.000Z,18.09
2022-08-10T04:22:00.000Z,19.19
2022-08-10T04:24:00.000Z,20.46
2022-08-10T04:26:00.000Z,21.64
2022-08-10T04:28:00.000Z,22.75
2022-08-10T04:30:00.000Z,23.85
2022-08-10T04:32:00.000Z,24.88
2022-08-10T04:34:00.000Z,25.83
2022-08-10T04:36:00.000Z,26.78
2022-08-10T04:38:00.000Z,27.17
2022-08-10T04:40:00.000Z,27.8
2022-08-10T04:42:00.000Z,28.2
2022-08-10T04:44:00.000Z,28.99
2022-08-10T04:46:00.000Z,30.17
2022-08-10T04:48:00.000Z,31.2
2022-08-10T04:50:00.000Z,31.99
2022-08-10T04:52:00.000Z,32.54
2022-08-10T04:54:00.000Z,33.25
2022-08-10T04:56:00.000Z,34.28
2022-08-10T04:58:00.000Z,35.15
2022-08-10T05:00:00.000Z,35.62
2022-08-10T05:02:00.000Z,37.99
2022-08-10T05:04:00.000Z,39.81
2022-08-10T05:06:00.000Z,43.6
2022-08-10T05:08:00.000Z,44.16
2022-08-10T05:10:00.000Z,47.32
2022-08-10T05:12:00.000Z,50.16
2022-08-10T05:14:00.000Z,52.53
2022-08-10T05:16:00.000Z,54.82
2022-08-10T05:18:00.000Z,57.59
2022-08-10T05:20:00.000Z,58.69
2022-08-10T05:22:00.000Z,60.51
2022-08-10T05:24:00.000Z,62.01
2022-08-10T05:26:00.000Z,64.3
2022-08-10T05:28:00.000Z,66.59
2022-08-10T05:30:00.000Z,68.17
2022-08-10T05:32:00.000Z,68.09
2022-08-10T05:34:00.000Z,69.52
2022-08-10T05:36:00.000Z,73.07
2022-08-10T05:38:00.000Z,76.78
2022-08-10T05:40:00.000Z,77.73
2022-08-10T05:42:00.000Z,80.66
2022-08-10T05:44:00.000Z,83.89
2022-08-10T05:46:00.000Z,86.74
2022-08-10T05:48:00.000Z,91.08
2022-08-10T05:50:00.000Z,93.85
2022-08-10T05:52:00.000Z,94.4
2022-08-10T05:54:00.000Z,97.48
2022-08-10T05:56:00.000Z,97.96
2022-08-10T05:58:00.000Z,102.22
2022-08-10T06:00:00.000Z,108.78
2022-08-10T06:02:00.000Z,118.5
2022-08-10T06:04:00.000Z,129.16
2022-08-10T06:06:00.000Z,140.3
2022-08-10T06:08:00.000Z,143.46
2022-08-10T06:10:00.000Z,141.88
2022-08-10T06:12:00.000Z,133.74
2022-08-10T06:14:00.000Z,165.74
2022-08-10T06:16:00.000Z,172.3
2022-08-10T06:18:00.000Z,172.77
2022-08-10T06:20:00.000Z,167.08
2022-08-10T06:22:00.000Z,176.96
2022-08-10T06:24:00.000Z,185.41
2022-08-10T06:26:00.000Z,193.71
2022-08-10T06:28:00.000Z,198.68
2022-08-10T06:30:00.000Z,208.87
2022-08-10T06:32:00.000Z,217.56
2022-08-10T06:34:00.000Z,224.83
2022-08-10T06:36:00.000Z,227.99
2022-08-10T06:38:00.000Z,231.39
2022-08-10T06:40:00.000Z,240.79
2022-08-10T06:42:00.000Z,244.5
2022-08-10T06:44:00.000Z,246.72
2022-08-10T06:46:00.000Z,257.78
2022-08-10T06:48:00.000Z,262.28
2022-08-10T06:50:00.000Z,265.12
2022-08-10T06:52:00.000Z,270.5
2022-08-10T06:54:00.000Z,276.42
2022-08-10T06:56:00.000Z,280.29
2022-08-10T06:58:00.000Z,285.66
2022-08-10T07:00:00.000Z,294.12
2022-08-10T07:02:00.000Z,300.12
2022-08-10T07:04:00.000Z,300.28
2022-08-10T07:06:00.000Z,297.83
2022-08-10T07:08:00.000Z,301.46
2022-08-10T07:10:00.000Z,319.63
2022-08-10T07:12:00.000Z,320.58
2022-08-10T07:14:00.000Z,331.09
2022-08-10T07:16:00.000Z,331.72
2022-08-10T07:18:00.000Z,336.86
2022-08-10T07:20:00.000Z,317.42
2022-08-10T07:22:00.000Z,319.63
2022-08-10T07:24:00.000Z,369.25
2022-08-10T07:26:00.000Z,374.3
2022-08-10T07:28:00.000Z,381.1
2022-08-10T07:30:00.000Z,381.81
2022-08-10T07:32:00.000Z,374.3
2022-08-10T07:34:00.000Z,392.79
2022-08-10T07:36:00.000Z,402.67
2022-08-10T07:38:00.000Z,409.06
2022-08-10T07:40:00.000Z,386.39
2022-08-10T07:42:00.000Z,413.25
2022-08-10T07:44:00.000Z,428.5
2022-08-10T07:46:00.000Z,433.63
2022-08-10T07:48:00.000Z,438.06
2022-08-10T07:50:00.000Z,439.87
2022-08-10T07:52:00.000Z,443.03
2022-08-10T07:54:00.000Z,452.28
2022-08-10T07:56:00.000Z,455.2
2022-08-10T07:58:00.000Z,459.78
2022-08-10T08:00:00.000Z,462.0
2022-08-10T08:02:00.000Z,467.92
2022-08-10T08:04:00.000Z,475.74
2022-08-10T08:06:00.000Z,483.01
2022-08-10T08:08:00.000Z,482.3
2022-08-10T08:10:00.000Z,491.7
2022-08-10T08:12:00.000Z,493.36
2022-08-10T08:14:00.000Z,502.52
2022-08-10T08:16:00.000Z,508.05
2022-08-10T08:18:00.000Z,511.85
2022-08-10T08:20:00.000Z,515.48
2022-08-10T08:22:00.000Z,522.67
2022-08-10T08:24:00.000Z,524.56
2022-08-10T08:26:00.000Z,530.09
2022-08-10T08:28:00.000Z,538.71
2022-08-10T08:30:00.000Z,543.6
2022-08-10T08:32:00.000Z,552.85
2022-08-10T08:34:00.000Z,557.75
2022-08-10T08:36:00.000Z,566.51
2022-08-10T08:38:00.000Z,574.65
2022-08-10T08:40:00.000Z,580.97
2022-08-10T08:42:00.000Z,584.76
2022-08-10T08:44:00.000Z,580.26
2022-08-10T08:46:00.000Z,584.68
2022-08-10T08:48:00.000Z,586.9
2022-08-10T08:50:00.000Z,604.51
2022-08-10T08:52:00.000Z,608.15
2022-08-10T08:54:00.000Z,592.51
2022-08-10T08:56:00.000Z,602.38
2022-08-10T08:58:00.000Z,593.06
2022-08-10T09:00:00.000Z,587.77
2022-08-10T09:02:00.000Z,606.49
2022-08-10T09:04:00.000Z,606.88
2022-08-10T09:06:00.000Z,588.08
2022-08-10T09:08:00.000Z,634.85
2022-08-10T09:10:00.000Z,611.78
2022-08-10T09:12:00.000Z,611.78
2022-08-10T09:14:00.000Z,628.69
2022-08-10T09:16:00.000Z,601.99
2022-08-10T09:18:00.000Z,622.61
2022-08-10T09:20:00.000Z,619.37
2022-08-10T09:22:00.000Z,599.77
2022-08-10T09:24:00.000Z,575.92
2022-08-10T09:26:00.000Z,597.01
2022-08-10T09:28:00.000Z,572.36
2022-08-10T09:30:00.000Z,549.53
2022-08-10T09:32:00.000Z,499.44
2022-08-10T09:34:00.000Z,571.02
2022-08-10T09:36:00.000Z,537.68
2022-08-10T09:38:00.000Z,484.91
2022-08-10T09:40:00.000Z,464.37
2022-08-10T09:42:00.000Z,614.31
2022-08-10T09:44:00.000Z,694.97
2022-08-10T09:46:00.000Z,708.95
2022-08-10T09:48:00.000Z,694.81
2022-08-10T09:50:00.000Z,703.27
2022-08-10T09:52:00.000Z,713.77
2022-08-10T09:54:00.000Z,712.67
2022-08-10T09:56:00.000Z,715.91
2022-08-10T09:58:00.000Z,717.17
2022-08-10T10:00:00.000Z,711.88
2022-08-10T10:02:00.000Z,714.96
2022-08-10T10:04:00.000Z,718.12
2022-08-10T10:06:00.000Z,721.51
2022-08-10T10:08:00.000Z,731.07
2022-08-10T10:10:00.000Z,741.42
2022-08-10T10:12:00.000Z,743.4
2022-08-10T10:14:00.000Z,743.95
2022-08-10T10:16:00.000Z,351.31
2022-08-10T10:18:00.000Z,728.7
2022-08-10T10:20:00.000Z,736.21
2022-08-10T10:22:00.000Z,747.51
2022-08-10T10:24:00.000Z,300.75
2022-08-10T10:26:00.000Z,339.7
2022-08-10T10:28:00.000Z,729.73
2022-08-10T10:30:00.000Z,743.87
2022-08-10T10:32:00.000Z,765.2
2022-08-10T10:34:00.000Z,770.73
2022-08-10T10:36:00.000Z,675.93
2022-08-10T10:38:00.000Z,756.83
2022-08-10T10:40:00.000Z,762.52
2022-08-10T10:42:00.000Z,763.15
2022-08-10T10:44:00.000Z,775.08
2022-08-10T10:46:00.000Z,768.76
2022-08-10T10:48:00.000Z,765.6
2022-08-10T10:50:00.000Z,762.75
2022-08-10T10:52:00.000Z,759.04
2022-08-10T10:54:00.000Z,756.2
2022-08-10T10:56:00.000Z,763.07
2022-08-10T10:58:00.000Z,763.86
2022-08-10T11:00:00.000Z,763.86
2022-08-10T11:02:00.000Z,772.31
2022-08-10T11:04:00.000Z,774.21
2022-08-10T11:06:00.000Z,773.18
2022-08-10T11:08:00.000Z,763.15
2022-08-10T11:10:00.000Z,759.91
2022-08-10T11:12:00.000Z,760.15
2022-08-10T11:14:00.000Z,765.36
2022-08-10T11:16:00.000Z,769.07
2022-08-10T11:18:00.000Z,770.89
2022-08-10T11:20:00.000Z,765.36
2022-08-10T11:22:00.000Z,761.88
2022-08-10T11:24:00.000Z,757.86
2022-08-10T11:26:00.000Z,759.2
2022-08-10T11:28:00.000Z,762.28
2022-08-10T11:30:00.000Z,762.12
2022-08-10T11:32:00.000Z,765.99
2022-08-10T11:34:00.000Z,763.7
2022-08-10T11:36:00.000Z,765.52
2022-08-10T11:38:00.000Z,764.81
2022-08-10T11:40:00.000Z,764.02
2022-08-10T11:42:00.000Z,758.17
2022-08-10T11:44:00.000Z,756.67
2022-08-10T11:46:00.000Z,758.57
2022-08-10T11:48:00.000Z,759.91
2022-08-10T11:50:00.000Z,763.62
2022-08-10T11:52:00.000Z,759.67
2022-08-10T11:54:00.000Z,758.49
2022-08-10T11:56:00.000Z,756.75
2022-08-10T11:58:00.000Z,757.62
2022-08-10T12:00:00.000Z,755.8
2022-08-10T12:02:00.000Z,752.4
2022-08-10T12:04:00.000Z,747.74
2022-08-10T12:06:00.000Z,748.61
2022-08-10T12:08:00.000Z,747.9
2022-08-10T12:10:00.000Z,748.85
2022-08-10T12:12:00.000Z,748.61
2022-08-10T12:14:00.000Z,749.17
2022-08-10T12:16:00.000Z,745.06
2022-08-10T12:18:00.000Z,743.95
2022-08-10T12:20:00.000Z,742.61
2022-08-10T12:22:00.000Z,741.27
2022-08-10T12:24:00.000Z,740.32
2022-08-10T12:26:00.000Z,736.53
2022-08-10T12:28:00.000Z,725.23
2022-08-10T12:30:00.000Z,725.23
2022-08-10T12:32:00.000Z,726.18
2022-08-10T12:34:00.000Z,731.79
2022-08-10T12:36:00.000Z,730.6
2022-08-10T12:38:00.000Z,727.52
2022-08-10T12:40:00.000Z,725.23
2022-08-10T12:42:00.000Z,715.91
2022-08-10T12:44:00.000Z,722.07
2022-08-10T12:46:00.000Z,716.22
2022-08-10T12:48:00.000Z,715.04
2022-08-10T12:50:00.000Z,716.14
2022-08-10T12:52:00.000Z,713.85
2022-08-10T12:54:00.000Z,712.75
2022-08-10T12:56:00.000Z,716.62
2022-08-10T12:58:00.000Z,719.54
2022-08-10T13:00:00.000Z,697.5
2022-08-10T13:02:00.000Z,705.48
2022-08-10T13:04:00.000Z,683.44
2022-08-10T13:06:00.000Z,687.94
2022-08-10T13:08:00.000Z,628.61
2022-08-10T13:10:00.000Z,685.1
2022-08-10T13:12:00.000Z,661.79
2022-08-10T13:14:00.000Z,595.27
2022-08-10T13:16:00.000Z,636.19
2022-08-10T13:18:00.000Z,648.36
2022-08-10T13:20:00.000Z,639.91
2022-08-10T13:22:00.000Z,687.31
2022-08-10T13:24:00.000Z,683.59
2022-08-10T13:26:00.000Z,669.77
2022-08-10T13:28:00.000Z,659.5
2022-08-10T13:30:00.000Z,645.12
2022-08-10T13:32:00.000Z,639.59
2022-08-10T13:34:00.000Z,657.6
2022-08-10T13:36:00.000Z,643.86
2022-08-10T13:38:00.000Z,649.31
2022-08-10T13:40:00.000Z,649.23
2022-08-10T13:42:00.000Z,644.57
2022-08-10T13:44:00.000Z,632.56
2022-08-10T13:46:00.000Z,638.96
2022-08-10T13:48:00.000Z,619.68
2022-08-10T13:50:00.000Z,633.27
2022-08-10T13:52:00.000Z,630.82
2022-08-10T13:54:00.000Z,622.29
2022-08-10T13:56:00.000Z,618.42
2022-08-10T13:58:00.000Z,617.08
2022-08-10T14:00:00.000Z,607.28
2022-08-10T14:02:00.000Z,603.88
2022-08-10T14:04:00.000Z,586.42
2022-08-10T14:06:00.000Z,594.09
2022-08-10T14:08:00.000Z,594.72
2022-08-10T14:10:00.000Z,570.39
2022-08-10T14:12:00.000Z,541.87
2022-08-10T14:14:00.000Z,553.64
2022-08-10T14:16:00.000Z,568.88
2022-08-10T14:18:00.000Z,562.88
2022-08-10T14:20:00.000Z,547.79
2022-08-10T14:22:00.000Z,567.46
2022-08-10T14:24:00.000Z,542.97
2022-08-10T14:26:00.000Z,526.3
2022-08-10T14:28:00.000Z,544.79
2022-08-10T14:30:00.000Z,495.33
2022-08-10T14:32:00.000Z,491.46
2022-08-10T14:34:00.000Z,537.68
2022-08-10T14:36:00.000Z,494.62
2022-08-10T14:38:00.000Z,501.18
2022-08-10T14:40:00.000Z,518.88
2022-08-10T14:42:00.000Z,513.82
2022-08-10T14:44:00.000Z,506.08
2022-08-10T14:46:00.000Z,500.86
2022-08-10T14:48:00.000Z,494.62
2022-08-10T14:50:00.000Z,484.98
2022-08-10T14:52:00.000Z,444.06
2022-08-10T14:54:00.000Z,444.77
2022-08-10T14:56:00.000Z,434.98
2022-08-10T14:58:00.000Z,439.87
2022-08-10T15:00:00.000Z,461.84
2022-08-10T15:02:00.000Z,457.81
2022-08-10T15:04:00.000Z,454.17
2022-08-10T15:06:00.000Z,449.43
2022-08-10T15:08:00.000Z,441.53
2022-08-10T15:10:00.000Z,437.9
2022-08-10T15:12:00.000Z,432.45
2022-08-10T15:14:00.000Z,425.1
2022-08-10T15:16:00.000Z,419.49
2022-08-10T15:18:00.000Z,413.17
2022-08-10T15:20:00.000Z,390.42
2022-08-10T15:22:00.000Z,402.03
2022-08-10T15:24:00.000Z,391.61
2022-08-10T15:26:00.000Z,393.03
2022-08-10T15:28:00.000Z,389.63
2022-08-10T15:30:00.000Z,384.73
2022-08-10T15:32:00.000Z,380.78
2022-08-10T15:34:00.000Z,373.2
2022-08-10T15:36:00.000Z,365.61
2022-08-10T15:38:00.000Z,361.27
2022-08-10T15:40:00.000Z,352.18
2022-08-10T15:42:00.000Z,343.73
2022-08-10T15:44:00.000Z,337.88
2022-08-10T15:46:00.000Z,331.64
2022-08-10T15:48:00.000Z,326.82
2022-08-10T15:50:00.000Z,321.21
2022-08-10T15:52:00.000Z,313.79
2022-08-10T15:54:00.000Z,309.21
2022-08-10T15:56:00.000Z,298.38
2022-08-10T15:58:00.000Z,294.51
2022-08-10T16:00:00.000Z,290.72
2022-08-10T16:02:00.000Z,290.64
2022-08-10T16:04:00.000Z,285.19
2022-08-10T16:06:00.000Z,278.4
2022-08-10T16:08:00.000Z,272.94
2022-08-10T16:10:00.000Z,265.28
2022-08-10T16:12:00.000Z,258.65
2022-08-10T16:14:00.000Z,251.93
2022-08-10T16:16:00.000Z,246.24
2022-08-10T16:18:00.000Z,243.24
2022-08-10T16:20:00.000Z,237.32
2022-08-10T16:22:00.000Z,232.1
2022-08-10T16:24:00.000Z,228.78
2022-08-10T16:26:00.000Z,223.1
2022-08-10T16:28:00.000Z,216.14
2022-08-10T16:30:00.000Z,209.51
2022-08-10T16:32:00.000Z,203.66
2022-08-10T16:34:00.000Z,191.97
2022-08-10T16:36:00.000Z,98.67
2022-08-10T16:38:00.000Z,58.69
2022-08-10T16:40:00.000Z,57.03
2022-08-10T16:42:00.000Z,56.01
2022-08-10T16:44:00.000Z,55.45
2022-08-10T16:46:00.000Z,54.9
2022-08-10T16:48:00.000Z,54.11
2022-08-10T16:50:00.000Z,54.27
2022-08-10T16:52:00.000Z,54.27
2022-08-10T16:54:00.000Z,54.43
2022-08-10T16:56:00.000Z,57.82
2022-08-10T16:58:00.000Z,111.7
2022-08-10T17:00:00.000Z,134.85
2022-08-10T17:02:00.000Z,129.72
2022-08-10T17:04:00.000Z,124.34
2022-08-10T17:06:00.000Z,120.24
2022-08-10T17:08:00.000Z,118.5
2022-08-10T17:10:00.000Z,112.97
2022-08-10T17:12:00.000Z,108.62
2022-08-10T17:14:00.000Z,105.38
2022-08-10T17:16:00.000Z,101.67
2022-08-10T17:18:00.000Z,97.25
2022-08-10T17:20:00.000Z,92.35
2022-08-10T17:22:00.000Z,88.4
2022-08-10T17:24:00.000Z,85.32
2022-08-10T17:26:00.000Z,80.81
2022-08-10T17:28:00.000Z,76.86
2022-08-10T17:30:00.000Z,72.83
2022-08-10T17:32:00.000Z,67.15
2022-08-10T17:34:00.000Z,64.07
2022-08-10T17:36:00.000Z,58.3
2022-08-10T17:38:00.000Z,49.45
2022-08-10T17:40:00.000Z,41.39
2022-08-10T17:42:00.000Z,39.5
2022-08-10T17:44:00.000Z,40.05
2022-08-10T17:46:00.000Z,37.76
2022-08-10T17:48:00.000Z,36.57
2022-08-10T17:50:00.000Z,35.7
2022-08-10T17:52:00.000Z,34.83
2022-08-10T17:54:00.000Z,34.04
2022-08-10T17:56:00.000Z,33.18
2022-08-10T17:58:00.000Z,32.78
2022-08-10T18:00:00.000Z,31.91
2022-08-10T18:02:00.000Z,30.96
2022-08-10T18:04:00.000Z,29.94
2022-08-10T18:06:00.000Z,28.75
2022-08-10T18:08:00.000Z,27.65
2022-08-10T18:10:00.000Z,26.54
2022-08-10T18:12:00.000Z,25.43
2022-08-10T18:14:00.000Z,24.33
2022-08-10T18:16:00.000Z,23.22
2022-08-10T18:18:00.000Z,22.19
2022-08-10T18:20:00.000Z,20.93
2022-08-10T18:22:00.000Z,19.9
2022-08-10T18:24:00.000Z,19.27
2022-08-10T18:26:00.000Z,18.17
2022-08-10T18:28:00.000Z,17.14
2022-08-10T18:30:00.000Z,16.11
2022-08-10T18:32:00.000Z,15.01
2022-08-10T18:34:00.000Z,13.98
2022-08-10T18:36:00.000Z,12.87
2022-08-10T18:38:00.000Z,11.77
2022-08-10T18:40:00.000Z,10.74
2022-08-10T18:42:00.000Z,9.63
2022-08-10T18:44:00.000Z,8.53
2022-08-10T18:46:00.000Z,7.5
2022-08-10T18:48:00.000Z,6.47
2022-08-10T18:50:00.000Z,6.0
2022-08-10T18:52:00.000Z,5.29
2022-08-10T18:54:00.000Z,4.66
2022-08-10T18:56:00.000Z,4.1
2022-08-10T18:58:00.000Z,3.55
2022-08-10T19:00:00.000Z,3.16
2022-08-10T19:02:00.000Z,2.6
2022-08-10T19:04:00.000Z,2.21
2022-08-10T19:06:00.000Z,1.89
2022-08-10T19:08:00.000Z,1.58
2022-08-10T19:10:00.000Z,1.26
2022-08-10T19:12:00.000Z,1.02
2022-08-10T19:14:00.000Z,0.86
2022-08-10T19:16:00.000Z,0.71
2022-08-10T19:18:00.000Z,0.47
2022-08-10T19:20:00.000Z,0.31
2022-08-10T19:22:00.000Z,0.23
2022-08-10T19:24:00.000Z,0.0
2022-08-10T19:26:00.000Z,0.0
2022-08-10T19:28:00.000Z,0.0
2022-08-10T19:30:00.000Z,0.0
2022-08-10T19:32:00.000Z,0.0
2022-08-10T19:34:00.000Z,0.0
2022-08-10T19:36:00.000Z,0.0
2022-08-10T19:38:00.000Z,0.0
2022-08-10T19:40:00.000Z,0.0
2022-08-10T19:42:00.000Z,0.0
2022-08-10T19:44:00.000Z,0.0
2022-08-10T19:46:00.000Z,0.0
2022-08-10T19:48:00.000Z,0.0
2022-08-10T19:50:00.000Z,0.0
2022-08-10T19:52:00.000Z,0.0
2022-08-10T19:54:00.000Z,0.0
2022-08-10T19:56:00.000Z,0.0
2022-08-10T19:58:00.000Z,0.0
2022-08-10T20:00:00.000Z,0.0
2022-08-10T20:02:00.000Z,0.0
2022-08-10T20:04:00.000Z,0.0
2022-08-10T20:06:00.000Z,0.0
2022-08-10T20:08:00.000Z,0.0
2022-08-10T20:10:00.000Z,0.0
2022-08-10T20:12:00.000Z,0.0
2022-08-10T20:14:00.000Z,0.0
2022-08-10T20:16:00.000Z,0.0
2022-08-10T20:18:00.000Z,0.0
2022-08-10T20:20:00.000Z,0.0
2022-08-10T20:22:00.000Z,0.0
2022-08-10T20:24:00.000Z,0.0
2022-08-10T20:26:00.000Z,0.0
2022-08-10T20:28:00.000Z,0.0
2022-08-10T20:30:00.000Z,0.0
2022-08-10T20:32:00.000Z,0.0
2022-08-10T20:34:00.000Z,0.0
2022-08-10T20:36:00.000Z,0.0
2022-08-10T20:38:00.000Z,0.0
2022-08-10T20:40:00.000Z,0.0
2022-08-10T20:42:00.000Z,0.0
2022-08-10T20:44:00.000Z,0.0
2022-08-10T20:46:00.000Z,0.0
2022-08-10T20:48:00.000Z,0.0
2022-08-10T20:50:00.000Z,0.0
2022-08-10T20:52:00.000Z,0.0
2022-08-10T20:54:00.000Z,0.0
2022-08-10T20:56:00.000Z,0.0
2022-08-10T20:58:00.000Z,0.0
2022-08-10T21:00:00.000Z,0.0
2022-08-10T21:02:00.000Z,0.0
2022-08-10T21:04:00.000Z,0.0
2022-08-10T21:06:00.000Z,0.0
2022-08-10T21:08:00.000Z,0.0
2022-08-10T21:10:00.000Z,0.0
2022-08-10T21:12:00.000Z,0.0
2022-08-10T21:14:00.000Z,0.0
2022-08-10T21:16:00.000Z,0.0
2022-08-10T21:18:00.000Z,0.0
2022-08-10T21:20:00.000Z,0.0
2022-08-10T21:22:00.000Z,0.0
2022-08-10T21:24:00.000Z,0.0
2022-08-10T21:26:00.000Z,0.0
2022-08-10T21:28:00.000Z,0.0
2022-08-10T21:30:00.000Z,0.0
2022-08-10T21:32:00.000Z,0.0
2022-08-10T21:34:00.000Z,0.0
2022-08-10T21:36:00.000Z,0.0
2022-08-10T21:38:00.000Z,0.0
2022-08-10T21:40:00.000Z,0.0
2022-08-10T21:42:00.000Z,0.0
2022-08-10T21:44:00.000Z,0.0
2022-08-10T21:46:00.000Z,0.0
2022-08-10T21:48:00.000Z,0.0
2022-08-10T21:50:00.000Z,0.0
2022-08-10T21:52:00.000Z,0.0
2022-08-10T21:54:00.000Z,0.0
2022-08-10T21:56:00.000Z,0.0
2022-08-10T21:58:00.000Z,0.0
2022-08-10T22:00:00.000Z,0.0
2022-08-10T22:02:00.000Z,0.0
2022-08-10T22:04:00.000Z,0.0
2022-08-10T22:06:00.000Z,0.0
2022-08-10T22:08:00.000Z,0.0
2022-08-10T22:10:00.000Z,0.0
2022-08-10T22:12:00.000Z,0.0
2022-08-10T22:14:00.000Z,0.0
2022-08-10T22:16:00.000Z,0.0
2022-08-10T22:18:00.000Z,0.0
2022-08-10T22:20:00.000Z,0.0
2022-08-10T22:22:00.000Z,0.0
2022-08-10T22:24:00.000Z,0.0
2022-08-10T22:26:00.000Z,0.0
2022-08-10T22:28:00.000Z,0.0
2022-08-10T22:30:00.000Z,0.0
2022-08-10T22:32:00.000Z,0.0
2022-08-10T22:34:00.000Z,0.0
2022-08-10T22:36:00.000Z,0.0
2022-08-10T22:38:00.000Z,0.0
2022-08-10T22:40:00.000Z,0.0
2022-08-10T22:42:00.000Z,0.0
2022-08-10T22:44:00.000Z,0.0
2022-08-10T22:46:00.000Z,0.0
2022-08-10T22:48:00.000Z,0.0
2022-08-10T22:50:00.000Z,0.0
2022-08-10T22:52:00.000Z,0.0
2022-08-10T22:54:00.000Z,0.0
2022-08-10T22:56:00.000Z,0.0
2022-08-10T22:58:00.000Z,0.0
2022-08-10T23:00:00.000Z,0.0
2022-08-10T23:02:00.000Z,0.0
2022-08-10T23:04:00.000Z,0.0
2022-08-10T23:06:00.000Z,0.0
2022-08-10T23:08:00.000Z,0.0
2022-08-10T23:10:00.000Z,0.0
2022-08-10T23:12:00.000Z,0.0
2022-08-10T23:14:00.000Z,0.0
2022-08-10T23:16:00.000Z,0.0
2022-08-10T23:18:00.000Z,0.0
2022-08-10T23:20:00.000Z,0.0
2022-08-10T23:22:00.000Z,0.0
2022-08-10T23:24:00.000Z,0.0
2022-08-10T23:26:00.000Z,0.0
2022-08-10T23:28:00.000Z,0.0
2022-08-10T23:30:00.000Z,0.0
2022-08-10T23:32:00.000Z,0.0
2022-08-10T23:34:00.000Z,0.0
2022-08-10T23:36:00.000Z,0.0
2022-08-10T23:38:00.000Z,0.0
2022-08-10T23:40:00.000Z,0.0
2022-08-10T23:42:00.000Z,0.0
2022-08-10T23:44:00.000Z,0.0
2022-08-10T23:46:00.000Z,0.0
2022-08-10T23:48:00.000Z,0.0
2022-08-10T23:50:00.000Z,0.0
2022-08-10T23:52:00.000Z,0.0
2022-08-10T23:54:00.000Z,0.0
2022-08-10T23:56:00.000Z,0.0
2022-08-10T23:58:00.000Z,0.0
